Time;durP1;ratioP1;P1;durP2;ratioP2;P2;SDS_P1;SDS_P2;PMS_P1;PMS_P2;Temp;Humidity;BMP_temperature;BMP_pressure;BME280_temperature;BME280_humidity;BME280_pressure;Samples;Min_cycle;Max_cycle;Signal;HPM_P1;HPM_P2
2023/12/19 00:00:46;;;;;;;;;;;;;;;-1.29;100.00;96571.94;5113871;28;1901;-59
2023/12/19 00:03:12;;;;;;;;;;;;;;;-1.34;100.00;96569.50;5114005;28;1043;-60
2023/12/19 00:05:41;;;;;;;;;;;;;;;-1.42;100.00;96563.69;5113966;28;1046;-59
2023/12/19 00:08:07;;;;;;;;;;;;;;;-1.35;100.00;96561.69;5113763;28;1139;-60
2023/12/19 00:10:34;;;;;;;;;;;;;;;-1.33;100.00;96565.94;5113976;28;1055;-59
2023/12/19 00:13:00;;;;;;;;;;;;;;;-1.12;100.00;96568.72;5113710;28;1865;-59
2023/12/19 00:15:26;;;;;;;;;;;;;;;-1.12;100.00;96566.97;5113835;28;964;-59
2023/12/19 00:17:52;;;;;;;;;;;;;;;-1.18;100.00;96567.19;5113835;28;1044;-59
2023/12/19 00:20:18;;;;;;;;;;;;;;;-1.25;100.00;96573.56;5113570;28;1910;-59
2023/12/19 00:22:44;;;;;;;;;;;;;;;-1.25;100.00;96565.69;5112409;28;1037;-59
2023/12/19 00:25:10;;;;;;;;;;;;;;;-1.18;100.00;96569.81;5113895;28;1100;-59
2023/12/19 00:27:36;;;;;;;;;;;;;;;-1.21;100.00;96568.16;5113806;28;1052;-59
2023/12/19 00:30:02;;;;;;;;;;;;;;;-1.11;100.00;96560.81;5113554;28;1329;-60
2023/12/19 00:32:28;;;;;;;;;;;;;;;-1.02;100.00;96562.25;5113804;28;972;-60
2023/12/19 00:34:54;;;;;;;;;;;;;;;-1.05;100.00;96565.81;5113574;28;924;-59
2023/12/19 00:37:20;;;;;;;;;;;;;;;-1.04;100.00;96562.31;5113635;28;1093;-59
2023/12/19 00:39:46;;;;;;;;;;;;;;;-1.01;100.00;96558.69;5113475;28;1988;-59
2023/12/19 00:42:12;;;;;;;;;;;;;;;-0.88;100.00;96554.69;5113379;28;1159;-59
2023/12/19 00:44:38;;;;;;;;;;;;;;;-1.08;100.00;96554.56;5113449;28;1103;-59
2023/12/19 00:47:04;;;;;;;;;;;;;;;-1.10;100.00;96554.66;5113445;28;1028;-59
2023/12/19 00:49:30;;;;;;;;;;;;;;;-1.15;100.00;96553.94;5113606;28;1048;-59
2023/12/19 00:51:56;;;;;;;;;;;;;;;-1.22;100.00;96555.09;5114681;28;1007;-59
2023/12/19 00:54:22;;;;;;;;;;;;;;;-1.06;100.00;96551.00;5117710;28;1358;-59
2023/12/19 00:56:48;;;;;;;;;;;;;;;-1.10;100.00;96552.03;5117514;28;1126;-59
2023/12/19 00:59:14;;;;;;;;;;;;;;;-1.06;100.00;96563.28;5117631;28;992;-59
2023/12/19 01:01:40;;;;;;;;;;;;;;;-1.07;100.00;96562.41;5117435;28;1980;-60
2023/12/19 01:04:06;;;;;;;;;;;;;;;-1.04;100.00;96557.06;5117402;28;1047;-59
2023/12/19 01:06:32;;;;;;;;;;;;;;;-1.05;100.00;96557.09;5116285;28;961;-60
2023/12/19 01:08:58;;;;;;;;;;;;;;;-1.11;100.00;96555.56;5117490;28;1067;-59
2023/12/19 01:11:24;;;;;;;;;;;;;;;-1.05;100.00;96551.84;5117332;28;964;-59
2023/12/19 01:13:50;;;;;;;;;;;;;;;-1.03;100.00;96544.78;5117097;28;1036;-59
2023/12/19 01:16:16;;;;;;;;;;;;;;;-1.21;100.00;96554.19;5117360;28;1067;-60
2023/12/19 01:18:42;;;;;;;;;;;;;;;-1.28;100.00;96548.28;5117189;28;1079;-59
2023/12/19 01:21:08;;;;;;;;;;;;;;;-1.09;100.00;96543.22;5115994;28;1914;-59
2023/12/19 01:23:34;;;;;;;;;;;;;;;-0.92;100.00;96539.13;5117176;28;1008;-59
2023/12/19 01:26:00;;;;;;;;;;;;;;;-0.93;100.00;96540.03;5117135;28;1270;-59
2023/12/19 01:28:26;;;;;;;;;;;;;;;-0.88;100.00;96538.09;5116834;28;1024;-59
2023/12/19 01:30:52;;;;;;;;;;;;;;;-0.82;100.00;96535.22;5116792;28;1059;-59
2023/12/19 01:33:18;;;;;;;;;;;;;;;-0.80;100.00;96530.78;5116783;28;965;-59
2023/12/19 01:35:44;;;;;;;;;;;;;;;-0.76;100.00;96537.63;5116728;28;1052;-59
2023/12/19 01:38:10;;;;;;;;;;;;;;;-0.67;100.00;96533.81;5116723;28;1114;-59
2023/12/19 01:40:36;;;;;;;;;;;;;;;-0.83;99.55;96539.63;5116732;28;1910;-59
2023/12/19 01:43:02;;;;;;;;;;;;;;;-1.05;100.00;96536.94;5116762;28;1056;-60
2023/12/19 01:45:28;;;;;;;;;;;;;;;-1.01;100.00;96537.69;5116811;28;988;-59
2023/12/19 01:47:55;;;;;;;;;;;;;;;-0.88;100.00;96536.31;5116828;28;972;-60
2023/12/19 01:50:21;;;;;;;;;;;;;;;-0.73;100.00;96532.25;5116659;28;1040;-60
2023/12/19 01:52:52;;;;;;;;;;;;;;;-0.64;100.00;96524.03;5116699;28;1063;-59
2023/12/19 01:55:19;;;;;;;;;;;;;;;-0.70;100.00;96519.03;5116284;28;1153;-59
2023/12/19 01:57:45;;;;;;;;;;;;;;;-0.97;100.00;96515.66;5116391;28;1055;-59
2023/12/19 02:00:13;;;;;;;;;;;;;;;-1.34;100.00;96469.78;5116187;27;1913;-59
2023/12/19 02:02:40;;;;;;;;;;;;;;;-1.01;100.00;96508.81;5115896;28;984;-59
2023/12/19 02:05:06;;;;;;;;;;;;;;;-1.08;100.00;96515.19;5116431;28;1167;-60
2023/12/19 02:07:32;;;;;;;;;;;;;;;-0.94;100.00;96518.19;5116309;28;984;-59
2023/12/19 02:09:59;;;;;;;;;;;;;;;-0.69;100.00;96514.63;5116274;28;979;-59
2023/12/19 02:12:25;;;;;;;;;;;;;;;-0.63;100.00;96519.63;5116020;28;936;-59
2023/12/19 02:14:52;;;;;;;;;;;;;;;-0.67;100.00;96508.38;5116021;28;1012;-59
2023/12/19 02:17:18;;;;;;;;;;;;;;;-0.68;100.00;96511.09;5114665;28;1089;-60
2023/12/19 02:19:45;;;;;;;;;;;;;;;-0.66;100.00;96502.22;5116065;28;1996;-59
2023/12/19 02:22:11;;;;;;;;;;;;;;;-0.63;99.86;96506.50;5116214;28;991;-59
2023/12/19 02:24:37;;;;;;;;;;;;;;;-0.77;99.33;96507.03;5115841;28;1119;-59
2023/12/19 02:27:03;;;;;;;;;;;;;;;-0.72;98.44;96505.09;5115756;28;1039;-59
2023/12/19 02:29:29;;;;;;;;;;;;;;;-0.80;98.48;96504.50;5115850;28;1094;-60
2023/12/19 02:31:56;;;;;;;;;;;;;;;-0.90;99.46;96504.00;5115780;28;991;-60
2023/12/19 02:34:22;;;;;;;;;;;;;;;-0.89;100.00;96504.84;5115503;28;1036;-59
2023/12/19 02:36:48;;;;;;;;;;;;;;;-0.85;100.00;96493.34;5115580;28;1044;-59
2023/12/19 02:39:14;;;;;;;;;;;;;;;-0.92;100.00;96497.97;5115447;28;1011;-59
2023/12/19 02:41:40;;;;;;;;;;;;;;;-1.02;100.00;96499.25;5115388;28;2007;-60
2023/12/19 02:44:06;;;;;;;;;;;;;;;-1.00;100.00;96497.41;5115790;28;1040;-59
2023/12/19 02:46:32;;;;;;;;;;;;;;;-0.99;100.00;96499.09;5115299;28;1102;-59
2023/12/19 02:48:59;;;;;;;;;;;;;;;-1.05;100.00;96502.81;5115314;28;1007;-59
2023/12/19 02:51:25;;;;;;;;;;;;;;;-1.02;100.00;96491.38;5115284;28;1063;-59
2023/12/19 02:53:52;;;;;;;;;;;;;;;-1.12;100.00;96484.72;5114065;28;1204;-59
2023/12/19 02:56:18;;;;;;;;;;;;;;;-1.33;100.00;96491.63;5115477;28;1055;-60
2023/12/19 02:58:44;;;;;;;;;;;;;;;-1.38;100.00;96487.41;5115099;28;1096;-59
2023/12/19 03:01:10;;;;;;;;;;;;;;;-1.48;100.00;96487.78;5114970;28;1935;-59
2023/12/19 03:03:36;;;;;;;;;;;;;;;-1.57;100.00;96489.84;5114924;27;1051;-59
2023/12/19 03:06:02;;;;;;;;;;;;;;;-1.63;100.00;96494.44;5114947;28;1025;-59
2023/12/19 03:08:28;;;;;;;;;;;;;;;-1.66;100.00;96499.81;5115056;28;1059;-60
2023/12/19 03:10:54;;;;;;;;;;;;;;;-1.56;100.00;96493.31;5115131;28;1054;-60
2023/12/19 03:13:20;;;;;;;;;;;;;;;-1.50;100.00;96497.47;5115041;28;987;-59
2023/12/19 03:15:46;;;;;;;;;;;;;;;-1.50;100.00;96502.72;5114219;28;1040;-59
2023/12/19 03:18:11;;;;;;;;;;;;;;;-1.39;100.00;96493.56;5114617;28;1103;-59
2023/12/19 03:20:37;;;;;;;;;;;;;;;-1.38;100.00;96489.19;5114945;28;1914;-59
2023/12/19 03:23:03;;;;;;;;;;;;;;;-1.27;100.00;96492.28;5114933;28;1059;-59
2023/12/19 03:25:29;;;;;;;;;;;;;;;-1.25;100.00;96484.31;5114793;28;1059;-59
2023/12/19 03:27:55;;;;;;;;;;;;;;;-1.32;100.00;96490.72;5114862;28;1031;-59
2023/12/19 03:30:21;;;;;;;;;;;;;;;-1.32;100.00;96485.47;5114434;28;1202;-60
2023/12/19 03:32:47;;;;;;;;;;;;;;;-1.37;100.00;96488.25;5113251;28;1005;-59
2023/12/19 03:35:13;;;;;;;;;;;;;;;-1.37;100.00;96477.75;5113391;28;1028;-59
2023/12/19 03:37:39;;;;;;;;;;;;;;;-1.43;100.00;96475.38;5114551;28;1225;-59
2023/12/19 03:40:06;;;;;;;;;;;;;;;-1.52;100.00;96478.31;5114440;28;1917;-59
2023/12/19 03:42:33;;;;;;;;;;;;;;;-1.53;100.00;96474.00;5114548;28;968;-59
2023/12/19 03:44:59;;;;;;;;;;;;;;;-1.48;100.00;96483.41;5114280;28;1036;-59
2023/12/19 03:47:25;;;;;;;;;;;;;;;-1.48;100.00;96491.28;5114442;27;984;-59
2023/12/19 03:49:51;;;;;;;;;;;;;;;-1.32;100.00;96483.69;5114305;28;1008;-59
2023/12/19 03:52:17;;;;;;;;;;;;;;;-1.28;100.00;96487.06;5114456;28;1063;-59
2023/12/19 03:54:43;;;;;;;;;;;;;;;-1.38;100.00;96478.69;5114145;28;1149;-59
2023/12/19 03:57:09;;;;;;;;;;;;;;;-1.43;100.00;96473.59;5114186;28;1059;-59
2023/12/19 03:59:35;;;;;;;;;;;;;;;-1.48;100.00;96472.91;5114203;28;1052;-59
2023/12/19 04:02:01;;;;;;;;;;;;;;;-1.55;100.00;96471.41;5114080;28;1906;-59
2023/12/19 04:04:27;;;;;;;;;;;;;;;-1.52;100.00;96471.28;5113924;28;1083;-59
2023/12/19 04:06:53;;;;;;;;;;;;;;;-1.45;100.00;96478.03;5113879;28;1020;-59
2023/12/19 04:09:19;;;;;;;;;;;;;;;-1.38;100.00;96481.31;5113764;28;1127;-59
2023/12/19 04:11:48;;;;;;;;;;;;;;;-1.40;100.00;96470.03;5113799;28;1192;-59
2023/12/19 04:14:17;;;;;;;;;;;;;;;-1.33;100.00;96478.50;5113725;28;1063;-59
2023/12/19 04:16:43;;;;;;;;;;;;;;;-1.35;100.00;96482.97;5113710;28;1303;-59
2023/12/19 04:19:09;;;;;;;;;;;;;;;-1.41;100.00;96481.41;5113734;28;1047;-59
2023/12/19 04:21:36;;;;;;;;;;;;;;;-1.43;100.00;96480.63;5112621;28;1903;-59
2023/12/19 04:24:05;;;;;;;;;;;;;;;-1.32;100.00;96475.84;5113877;28;1051;-58
2023/12/19 04:26:31;;;;;;;;;;;;;;;-1.01;100.00;96488.66;5113358;28;1095;-59
2023/12/19 04:28:57;;;;;;;;;;;;;;;-1.16;100.00;96486.59;5112401;28;1130;-59
2023/12/19 04:31:23;;;;;;;;;;;;;;;-1.19;100.00;96484.13;5113268;28;1179;-59
2023/12/19 04:33:49;;;;;;;;;;;;;;;-1.19;100.00;96490.22;5113800;28;976;-59
2023/12/19 04:36:15;;;;;;;;;;;;;;;-1.26;100.00;96493.13;5113789;28;1063;-59
2023/12/19 04:38:41;;;;;;;;;;;;;;;-1.32;100.00;96493.34;5113796;28;1048;-59
2023/12/19 04:41:07;;;;;;;;;;;;;;;-1.36;100.00;96492.59;5113431;28;1906;-59
2023/12/19 04:43:33;;;;;;;;;;;;;;;-1.43;100.00;96483.22;5113443;28;968;-60
2023/12/19 04:46:00;;;;;;;;;;;;;;;-1.44;100.00;96492.88;5113430;28;1051;-61
2023/12/19 04:48:27;;;;;;;;;;;;;;;-1.33;100.00;96496.88;5113371;28;1072;-61
2023/12/19 04:50:52;;;;;;;;;;;;;;;-1.20;100.00;96496.34;5113627;28;1079;-61
2023/12/19 04:53:19;;;;;;;;;;;;;;;-1.32;100.00;96495.97;5113598;28;1015;-61
2023/12/19 04:55:45;;;;;;;;;;;;;;;-1.29;100.00;96508.97;5113587;28;1149;-60
2023/12/19 04:58:11;;;;;;;;;;;;;;;-1.29;100.00;96501.09;5113232;28;1115;-60
2023/12/19 05:00:38;;;;;;;;;;;;;;;-1.07;100.00;96504.66;5113408;28;1902;-60
2023/12/19 05:03:04;;;;;;;;;;;;;;;-1.28;100.00;96516.78;5113603;28;980;-60
2023/12/19 05:05:30;;;;;;;;;;;;;;;-1.22;100.00;96506.06;5111983;28;1008;-60
2023/12/19 05:07:56;;;;;;;;;;;;;;;-1.10;100.00;96499.53;5113267;28;1076;-60
2023/12/19 05:10:21;;;;;;;;;;;;;;;-0.95;100.00;96505.09;5111950;28;1040;-61
2023/12/19 05:12:47;;;;;;;;;;;;;;;-1.06;100.00;96503.75;5113307;28;983;-59
2023/12/19 05:15:13;;;;;;;;;;;;;;;-1.08;100.00;96496.81;5113326;28;988;-59
2023/12/19 05:17:39;;;;;;;;;;;;;;;-1.15;100.00;96497.97;5113406;28;1008;-59
2023/12/19 05:20:06;;;;;;;;;;;;;;;-1.08;100.00;96499.44;5113440;28;1906;-59
2023/12/19 05:22:32;;;;;;;;;;;;;;;-0.96;100.00;96499.00;5113567;28;1028;-59
2023/12/19 05:24:58;;;;;;;;;;;;;;;-1.06;100.00;96502.91;5113224;28;1035;-58
2023/12/19 05:27:24;;;;;;;;;;;;;;;-1.21;100.00;96501.69;5113016;28;1071;-58
2023/12/19 05:29:50;;;;;;;;;;;;;;;-1.43;100.00;96499.81;5113029;28;1222;-58
2023/12/19 05:32:16;;;;;;;;;;;;;;;-1.38;100.00;96510.19;5113013;28;1095;-58
2023/12/19 05:34:42;;;;;;;;;;;;;;;-1.44;100.00;96508.63;5113360;28;979;-58
2023/12/19 05:37:08;;;;;;;;;;;;;;;-1.58;100.00;96488.09;5112999;28;1028;-58
2023/12/19 05:39:34;;;;;;;;;;;;;;;-1.44;100.00;96516.50;5116564;28;1023;-58
2023/12/19 05:42:00;;;;;;;;;;;;;;;-1.39;100.00;96514.53;5116743;28;1910;-58
2023/12/19 05:44:26;;;;;;;;;;;;;;;-1.47;100.00;96506.09;5116633;28;1059;-58
2023/12/19 05:46:52;;;;;;;;;;;;;;;-1.52;100.00;96510.66;5116614;28;1048;-58
2023/12/19 05:49:18;;;;;;;;;;;;;;;-1.53;100.00;96498.47;5116562;28;1043;-58
2023/12/19 05:51:44;;;;;;;;;;;;;;;-1.53;100.00;96495.84;5116726;28;984;-58
2023/12/19 05:54:10;;;;;;;;;;;;;;;-1.57;100.00;96513.44;5116311;28;1227;-58
2023/12/19 05:56:36;;;;;;;;;;;;;;;-1.67;100.00;96512.06;5115218;28;1060;-58
2023/12/19 05:59:02;;;;;;;;;;;;;;;-1.70;100.00;96511.31;5116643;28;1060;-58
2023/12/19 06:01:28;;;;;;;;;;;;;;;-1.72;100.00;96511.34;5116171;28;1989;-58
2023/12/19 06:03:54;;;;;;;;;;;;;;;-1.77;100.00;96514.13;5116325;28;1051;-57
2023/12/19 06:06:21;;;;;;;;;;;;;;;-1.71;100.00;96509.59;5116407;28;1063;-58
2023/12/19 06:08:47;;;;;;;;;;;;;;;-1.58;100.00;96503.84;5116500;28;980;-59
2023/12/19 06:11:13;;;;;;;;;;;;;;;-1.66;100.00;96505.91;5116165;27;1133;-59
2023/12/19 06:13:39;;;;;;;;;;;;;;;-1.72;100.00;96507.88;5115030;28;989;-59
2023/12/19 06:16:05;;;;;;;;;;;;;;;-1.75;100.00;96502.75;5116014;28;992;-59
2023/12/19 06:18:31;;;;;;;;;;;;;;;-1.60;100.00;96502.19;5115465;27;1043;-60
2023/12/19 06:20:59;;;;;;;;;;;;;;;-1.70;100.00;96500.81;5115712;28;1910;-59
2023/12/19 06:23:26;;;;;;;;;;;;;;;-1.79;100.00;96492.34;5116240;28;984;-59
2023/12/19 06:25:52;;;;;;;;;;;;;;;-1.78;100.00;96499.31;5115952;27;1063;-59
2023/12/19 06:28:18;;;;;;;;;;;;;;;-1.63;100.00;96497.03;5115879;28;969;-59
2023/12/19 06:30:44;;;;;;;;;;;;;;;-1.63;100.00;96492.69;5115596;28;1240;-59
2023/12/19 06:33:11;;;;;;;;;;;;;;;-1.64;100.00;96495.34;5114655;28;984;-60
2023/12/19 06:35:41;;;;;;;;;;;;;;;-1.59;100.00;96496.91;5115749;28;1067;-59
2023/12/19 06:38:07;;;;;;;;;;;;;;;-1.57;100.00;96486.38;5115922;28;992;-59
2023/12/19 06:40:33;;;;;;;;;;;;;;;-1.62;100.00;96496.16;5115407;28;1905;-60
2023/12/19 06:42:59;;;;;;;;;;;;;;;-1.53;100.00;96495.84;5115837;28;1020;-60
2023/12/19 06:45:24;;;;;;;;;;;;;;;-1.61;100.00;96497.88;5115387;28;1044;-60
2023/12/19 06:47:51;;;;;;;;;;;;;;;-1.61;100.00;96495.25;5115766;28;969;-60
2023/12/19 06:50:18;;;;;;;;;;;;;;;-1.67;100.00;96490.22;5115591;28;980;-60
2023/12/19 06:52:44;;;;;;;;;;;;;;;-1.66;100.00;96497.19;5115503;28;1063;-60
2023/12/19 06:55:11;;;;;;;;;;;;;;;-1.63;100.00;96499.66;5115338;28;1232;-59
2023/12/19 06:57:38;;;;;;;;;;;;;;;-1.46;100.00;96497.34;5115341;28;1114;-59
2023/12/19 07:00:06;;;;;;;;;;;;;;;-1.74;100.00;96501.84;5115027;28;2024;-60
2023/12/19 07:02:32;;;;;;;;;;;;;;;-1.71;100.00;96494.69;5115269;28;1084;-59
2023/12/19 07:04:58;;;;;;;;;;;;;;;-1.33;100.00;96497.72;5115217;28;1051;-59
2023/12/19 07:07:24;;;;;;;;;;;;;;;-1.30;100.00;96499.41;5116138;28;1059;-59
2023/12/19 07:09:50;;;;;;;;;;;;;;;-1.25;100.00;96508.81;5114649;28;1076;-59
2023/12/19 07:12:16;;;;;;;;;;;;;;;-1.29;100.00;96508.97;5115995;28;1028;-59
2023/12/19 07:14:42;;;;;;;;;;;;;;;-1.15;100.00;96511.97;5115824;28;1021;-59
2023/12/19 07:17:09;;;;;;;;;;;;;;;-1.31;98.59;96505.53;5116368;28;1212;-59
2023/12/19 07:19:35;;;;;;;;;;;;;;;-1.38;100.00;96505.78;5115677;28;991;-59
2023/12/19 07:22:01;;;;;;;;;;;;;;;-1.53;100.00;96501.06;5115847;28;1909;-59
2023/12/19 07:24:27;;;;;;;;;;;;;;;-1.47;100.00;96510.50;5114179;28;1029;-59
2023/12/19 07:26:55;;;;;;;;;;;;;;;-1.58;100.00;96503.00;5115453;28;992;-59
2023/12/19 07:29:21;;;;;;;;;;;;;;;-1.55;100.00;96495.03;5115328;28;995;-58
2023/12/19 07:31:47;;;;;;;;;;;;;;;-1.60;100.00;96494.34;5114571;28;1148;-59
2023/12/19 07:34:13;;;;;;;;;;;;;;;-1.52;100.00;96496.69;5114525;28;1435;-59
2023/12/19 07:36:39;;;;;;;;;;;;;;;-1.50;100.00;96493.13;5114912;28;992;-59
2023/12/19 07:39:05;;;;;;;;;;;;;;;-1.41;100.00;96497.16;5114608;28;1059;-59
2023/12/19 07:41:31;;;;;;;;;;;;;;;-1.39;100.00;96490.09;5114285;28;1906;-58
2023/12/19 07:43:57;;;;;;;;;;;;;;;-1.40;100.00;96485.75;5114449;28;1024;-59
2023/12/19 07:46:23;;;;;;;;;;;;;;;-1.41;100.00;96478.78;5114276;28;1040;-59
2023/12/19 07:48:49;;;;;;;;;;;;;;;-1.49;100.00;96480.84;5114344;28;1134;-58
2023/12/19 07:51:16;;;;;;;;;;;;;;;-1.47;100.00;96473.78;5114259;28;1131;-59
2023/12/19 07:53:42;;;;;;;;;;;;;;;-1.48;100.00;96465.06;5114463;28;976;-59
2023/12/19 07:56:08;;;;;;;;;;;;;;;-1.41;100.00;96477.00;5114578;28;1197;-59
2023/12/19 07:58:34;;;;;;;;;;;;;;;-1.47;100.00;96479.03;5113029;28;1056;-59
2023/12/19 08:01:00;;;;;;;;;;;;;;;-1.51;100.00;96472.16;5113587;28;1910;-59
2023/12/19 08:03:30;;;;;;;;;;;;;;;-1.43;100.00;96465.72;5114062;28;1028;-59
2023/12/19 08:05:56;;;;;;;;;;;;;;;-1.43;100.00;96476.22;5114246;28;1033;-59
2023/12/19 08:08:22;;;;;;;;;;;;;;;-1.16;100.00;96465.59;5114056;28;1083;-59
2023/12/19 08:10:49;;;;;;;;;;;;;;;-1.14;100.00;96468.19;5113632;28;1063;-60
2023/12/19 08:13:15;;;;;;;;;;;;;;;-0.89;100.00;96476.84;5113932;28;1106;-60
2023/12/19 08:15:41;;;;;;;;;;;;;;;-0.82;100.00;96470.44;5114091;28;1042;-60
2023/12/19 08:18:07;;;;;;;;;;;;;;;-0.69;100.00;96462.94;5114156;28;1032;-59
2023/12/19 08:20:33;;;;;;;;;;;;;;;-0.60;100.00;96462.56;5113905;28;1968;-60
2023/12/19 08:22:59;;;;;;;;;;;;;;;-0.47;100.00;96460.31;5113956;28;1056;-60
2023/12/19 08:25:25;;;;;;;;;;;;;;;-0.55;98.56;96467.66;5113771;28;1087;-60
2023/12/19 08:27:51;;;;;;;;;;;;;;;-0.57;100.00;96455.47;5113818;28;1012;-59
2023/12/19 08:30:18;;;;;;;;;;;;;;;-0.49;100.00;96459.53;5113808;28;1173;-57
2023/12/19 08:32:44;;;;;;;;;;;;;;;-0.58;100.00;96453.78;5112851;28;1091;-57
2023/12/19 08:35:10;;;;;;;;;;;;;;;-0.58;100.00;96453.78;5113973;28;969;-57
2023/12/19 08:37:36;;;;;;;;;;;;;;;-0.49;100.00;96448.16;5114036;28;1055;-57
2023/12/19 08:40:03;;;;;;;;;;;;;;;-0.49;100.00;96442.91;5113915;28;1993;-57
2023/12/19 08:42:29;;;;;;;;;;;;;;;-0.61;100.00;96446.84;5113537;28;991;-57
2023/12/19 08:44:55;;;;;;;;;;;;;;;-0.57;100.00;96437.09;5113916;28;972;-57
2023/12/19 08:47:30;;;;;;;;;;;;;;;-0.60;100.00;96427.56;5113884;28;1047;-57
2023/12/19 08:49:59;;;;;;;;;;;;;;;-0.67;100.00;96428.72;5113589;28;1864;-57
2023/12/19 08:52:26;;;;;;;;;;;;;;;-0.56;100.00;96418.63;5113508;28;1079;-57
2023/12/19 08:54:52;;;;;;;;;;;;;;;-0.56;100.00;96416.00;5113583;28;1157;-57
2023/12/19 08:57:18;;;;;;;;;;;;;;;-0.48;100.00;96413.06;5113540;28;1058;-57
2023/12/19 08:59:44;;;;;;;;;;;;;;;-0.54;100.00;96408.91;5113600;28;1016;-57
2023/12/19 09:02:10;;;;;;;;;;;;;;;-0.62;100.00;96413.63;5113718;28;2281;-57
2023/12/19 09:04:36;;;;;;;;;;;;;;;-0.73;100.00;96411.44;5113883;28;960;-57
2023/12/19 09:07:02;;;;;;;;;;;;;;;-0.69;100.00;96401.66;5113882;28;980;-57
2023/12/19 09:09:28;;;;;;;;;;;;;;;-0.68;100.00;96401.59;5113489;28;976;-57
2023/12/19 09:11:54;;;;;;;;;;;;;;;-0.62;100.00;96385.59;5113404;28;1032;-57
2023/12/19 09:14:20;;;;;;;;;;;;;;;-0.63;100.00;96385.66;5116825;28;973;-56
2023/12/19 09:16:46;;;;;;;;;;;;;;;-0.43;100.00;96382.22;5117575;28;979;-56
2023/12/19 09:19:14;;;;;;;;;;;;;;;-0.30;100.00;96382.56;5117378;28;968;-56
2023/12/19 09:21:40;;;;;;;;;;;;;;;-0.39;100.00;96370.66;5117329;28;1906;-56
2023/12/19 09:24:06;;;;;;;;;;;;;;;-0.48;100.00;96368.41;5117461;28;1064;-56
2023/12/19 09:26:33;;;;;;;;;;;;;;;-0.53;100.00;96360.72;5117347;28;991;-56
2023/12/19 09:28:59;;;;;;;;;;;;;;;-0.49;100.00;96356.19;5117152;28;1051;-56
2023/12/19 09:31:25;;;;;;;;;;;;;;;-0.54;100.00;96360.78;5116908;28;1076;-57
2023/12/19 09:33:51;;;;;;;;;;;;;;;-0.28;100.00;96360.53;5117117;28;943;-56
2023/12/19 09:36:26;;;;;;;;;;;;;;;-0.29;100.00;96353.56;5116894;28;1028;-57
2023/12/19 09:38:52;;;;;;;;;;;;;;;-0.25;100.00;96351.66;5117200;28;972;-56
2023/12/19 09:41:18;;;;;;;;;;;;;;;-0.22;100.00;96339.22;5116767;28;1913;-56
2023/12/19 09:43:44;;;;;;;;;;;;;;;-0.30;100.00;96341.34;5117050;28;1040;-56
2023/12/19 09:46:10;;;;;;;;;;;;;;;-0.33;100.00;96332.75;5117069;28;1058;-56
2023/12/19 09:48:36;;;;;;;;;;;;;;;-0.42;100.00;96332.22;5117058;28;968;-56
2023/12/19 09:51:03;;;;;;;;;;;;;;;-0.32;100.00;96329.16;5115606;28;968;-56
2023/12/19 09:53:33;;;;;;;;;;;;;;;-0.21;100.00;96313.78;5116712;28;1039;-56
2023/12/19 09:56:00;;;;;;;;;;;;;;;-0.14;100.00;96317.88;5115615;28;1224;-56
2023/12/19 09:58:29;;;;;;;;;;;;;;;0.03;100.00;96319.75;5116819;28;991;-56
2023/12/19 10:00:59;;;;;;;;;;;;;;;0.24;100.00;96309.19;5115519;28;2034;-56
2023/12/19 10:03:28;;;;;;;;;;;;;;;0.19;100.00;96318.16;5116388;28;999;-56
2023/12/19 10:05:54;;;;;;;;;;;;;;;0.16;100.00;96317.44;5116352;28;1019;-56
2023/12/19 10:08:21;;;;;;;;;;;;;;;0.24;100.00;96307.41;5116214;28;1083;-56
2023/12/19 10:10:48;;;;;;;;;;;;;;;0.35;100.00;96317.44;5116550;28;953;-56
2023/12/19 10:13:30;;;;;;;;;;;;;;;0.30;100.00;96304.50;5116186;28;827;-56
2023/12/19 10:16:00;;;;;;;;;;;;;;;0.15;100.00;96306.06;5116445;28;1043;-56
2023/12/19 10:18:26;;;;;;;;;;;;;;;-0.01;100.00;96299.78;5115902;28;1024;-56
2023/12/19 10:21:10;;;;;;;;;;;;;;;0.09;100.00;96292.31;5115925;28;1910;-56
2023/12/19 10:23:39;;;;;;;;;;;;;;;0.24;100.00;96280.25;5115926;28;972;-56
2023/12/19 10:26:06;;;;;;;;;;;;;;;0.47;100.00;96280.03;5115888;28;1036;-56
2023/12/19 10:28:32;;;;;;;;;;;;;;;0.38;100.00;96280.50;5116045;28;988;-56
2023/12/19 10:31:08;;;;;;;;;;;;;;;0.34;100.00;96266.63;5115548;27;1088;-56
2023/12/19 10:33:40;;;;;;;;;;;;;;;0.18;100.00;96273.50;5115974;28;964;-56
2023/12/19 10:39:01;;;;;;;;;;;;;;;-0.15;100.00;96258.34;5124305;27;1299760;-56
2023/12/19 10:41:29;;;;;;;;;;;;;;;-0.17;100.00;96264.56;5152197;27;1049;-56
2023/12/19 10:43:57;;;;;;;;;;;;;;;0.02;100.00;96261.97;5152428;27;1051;-55
2023/12/19 10:46:27;;;;;;;;;;;;;;;0.32;100.00;96251.81;5152232;27;1025;-56
2023/12/19 10:48:53;;;;;;;;;;;;;;;0.31;100.00;96244.84;5152251;27;1909;-56
2023/12/19 10:51:23;;;;;;;;;;;;;;;0.26;100.00;96242.41;5151920;27;1186;-55
2023/12/19 10:53:58;;;;;;;;;;;;;;;0.39;100.00;96240.06;5151872;27;1173;-55
2023/12/19 10:56:24;;;;;;;;;;;;;;;0.46;100.00;96236.25;5151885;27;1044;-55
2023/12/19 10:58:57;;;;;;;;;;;;;;;0.43;100.00;96231.09;5151823;27;1075;-55
2023/12/19 11:01:24;;;;;;;;;;;;;;;0.36;100.00;96233.19;5152017;27;1011;-55
2023/12/19 11:03:54;;;;;;;;;;;;;;;0.31;100.00;96231.69;5151817;27;1057;-56
2023/12/19 11:06:22;;;;;;;;;;;;;;;0.33;100.00;96229.84;5152188;27;1111;-56
2023/12/19 11:08:51;;;;;;;;;;;;;;;0.47;100.00;96223.91;5151560;27;1913;-55
2023/12/19 11:11:30;;;;;;;;;;;;;;;0.70;100.00;96221.06;5151600;27;1028;-56
2023/12/19 11:13:56;;;;;;;;;;;;;;;0.83;100.00;96210.75;5152021;27;1130;-56
2023/12/19 11:16:41;;;;;;;;;;;;;;;0.89;100.00;96210.47;5151833;27;972;-56
2023/12/19 11:19:13;;;;;;;;;;;;;;;0.73;100.00;96207.72;5151440;27;1048;-56
2023/12/19 11:21:58;;;;;;;;;;;;;;;0.94;100.00;96208.44;5151422;27;1040;-55
2023/12/19 11:24:30;;;;;;;;;;;;;;;0.85;100.00;96203.63;5151259;27;917;-56
2023/12/19 11:27:19;;;;;;;;;;;;;;;0.66;100.00;96200.19;5151455;27;1914;-55
2023/12/19 11:29:54;;;;;;;;;;;;;;;0.61;100.00;96202.19;5151279;27;969;-56
2023/12/19 11:32:26;;;;;;;;;;;;;;;0.90;100.00;96206.03;5151472;27;1052;-56
2023/12/19 11:34:52;;;;;;;;;;;;;;;0.88;100.00;96200.84;5151443;27;1015;-55
2023/12/19 11:37:22;;;;;;;;;;;;;;;0.92;100.00;96202.38;5151131;27;1043;-56
2023/12/19 11:39:48;;;;;;;;;;;;;;;0.86;100.00;96188.69;5150956;27;1083;-56
2023/12/19 11:42:40;;;;;;;;;;;;;;;0.94;100.00;96187.38;5150999;27;1055;-56
2023/12/19 11:45:09;;;;;;;;;;;;;;;0.80;100.00;96186.34;5147492;27;1653;-55
2023/12/19 11:47:35;;;;;;;;;;;;;;;0.94;100.00;96183.88;5151043;27;1991;-56
2023/12/19 11:50:03;;;;;;;;;;;;;;;1.10;100.00;96178.69;5139408;27;969;-56
2023/12/19 11:52:33;;;;;;;;;;;;;;;0.91;100.00;96177.00;5136948;27;1036;-56
2023/12/19 11:55:00;;;;;;;;;;;;;;;0.72;100.00;96168.31;5147611;27;1154;-56
2023/12/19 11:57:27;;;;;;;;;;;;;;;0.78;100.00;96165.38;5157620;27;1028;-55
2023/12/19 11:59:54;;;;;;;;;;;;;;;0.84;100.00;96162.44;5157887;27;1185;-55
2023/12/19 12:02:30;;;;;;;;;;;;;;;0.91;100.00;96155.94;5157709;27;1053;-56
2023/12/19 12:05:04;;;;;;;;;;;;;;;0.75;100.00;96149.72;5158092;27;1056;-56
2023/12/19 12:07:30;;;;;;;;;;;;;;;0.88;100.00;96150.81;5157332;27;1937;-56
2023/12/19 12:10:00;;;;;;;;;;;;;;;0.83;100.00;96152.81;5157403;27;1134;-55
2023/12/19 12:12:33;;;;;;;;;;;;;;;0.85;100.00;96145.69;5157440;27;965;-55
2023/12/19 12:15:09;;;;;;;;;;;;;;;0.93;100.00;96145.31;5157433;27;965;-55
2023/12/19 12:17:36;;;;;;;;;;;;;;;0.83;100.00;96152.81;5157576;27;928;-56
2023/12/19 12:20:03;;;;;;;;;;;;;;;0.72;100.00;96145.47;5157227;27;1036;-56
2023/12/19 12:22:30;;;;;;;;;;;;;;;0.88;100.00;96144.72;5157075;27;1059;-56
2023/12/19 12:24:57;;;;;;;;;;;;;;;0.71;100.00;96141.13;5157099;27;1032;-55
2023/12/19 12:27:23;;;;;;;;;;;;;;;0.71;100.00;96135.03;5156916;27;2033;-56
2023/12/19 12:29:51;;;;;;;;;;;;;;;0.76;100.00;96128.59;5157113;27;1051;-56
2023/12/19 12:32:17;;;;;;;;;;;;;;;0.87;100.00;96124.56;5157123;27;1033;-56
2023/12/19 12:34:45;;;;;;;;;;;;;;;0.89;100.00;96127.97;5156993;27;1017;-56
2023/12/19 12:37:15;;;;;;;;;;;;;;;0.89;100.00;96120.94;5156788;27;1040;-56
2023/12/19 12:39:41;;;;;;;;;;;;;;;0.91;100.00;96119.06;5156799;27;1274;-56
2023/12/19 12:42:07;;;;;;;;;;;;;;;0.90;100.00;96122.63;5156865;27;1000;-56
2023/12/19 12:44:33;;;;;;;;;;;;;;;0.99;100.00;96126.56;5141095;27;1026;-56
2023/12/19 12:47:05;;;;;;;;;;;;;;;1.10;100.00;96121.59;5135822;27;1914;-55
2023/12/19 12:49:31;;;;;;;;;;;;;;;1.02;100.00;96122.94;5135852;27;960;-55
2023/12/19 12:51:58;;;;;;;;;;;;;;;0.99;100.00;96118.69;5135488;27;1088;-55